Time;durP1;ratioP1;P1;durP2;ratioP2;P2;SDS_P1;SDS_P2;PMS_P1;PMS_P2;Temp;Humidity;BMP_temperature;BMP_pressure;BME280_temperature;BME280_humidity;BME280_pressure;Samples;Min_cycle;Max_cycle;Signal;HPM_P1;HPM_P2
2022/05/12 00:01:06;;;;;;;;;5.00;2.00;;;;;16.75;100.00;101307.69;6165665;23;44785;-88
2022/05/12 00:03:35;;;;;;;;;2.80;2.80;;;;;16.68;100.00;101315.34;6143614;23;44821;-88
2022/05/12 00:06:07;;;;;;;;;5.00;3.00;;;;;16.67;100.00;101317.16;6160912;23;45138;-87
2022/05/12 00:09:10;;;;;;;;;4.20;3.40;;;;;16.70;100.00;101313.41;6134338;23;46529;-87
2022/05/12 00:11:44;;;;;;;;;3.40;3.00;;;;;16.70;100.00;101322.28;6155514;23;45431;-88
2022/05/12 00:14:11;;;;;;;;;2.80;2.80;;;;;16.70;100.00;101324.97;6159180;23;44766;-88
2022/05/12 00:16:45;;;;;;;;;4.00;2.00;;;;;16.70;100.00;101327.66;6156797;23;44810;-88
2022/05/12 00:19:28;;;;;;;;;;;;;;;;;;;;;
2022/05/12 00:22:03;;;;;;;;;3.00;2.00;;;;;16.52;100.00;101325.66;6157038;23;73257;-87
2022/05/12 00:24:31;;;;;;;;;5.00;3.40;;;;;16.43;100.00;101333.47;6226495;22;44653;-88
2022/05/12 00:26:56;;;;;;;;;4.50;4.50;;;;;16.40;100.00;101331.06;6243071;22;44785;-86
2022/05/12 00:29:27;;;;;;;;;4.00;2.75;;;;;16.40;100.00;101343.63;6218414;22;45046;-85
2022/05/12 00:32:10;;;;;;;;;3.20;3.20;;;;;16.35;100.00;101341.31;6245103;22;45189;-87
2022/05/12 00:38:05;;;;;;;;;5.25;1.75;;;;;16.15;100.00;101339.41;6199688;23;44879;-86
2022/05/12 00:40:30;;;;;;;;;5.00;3.20;;;;;16.10;100.00;101357.66;6199673;23;45357;-86
2022/05/12 00:43:14;;;;;;;;;3.00;2.00;;;;;16.08;100.00;101355.09;6172406;23;44651;-83
2022/05/12 00:45:43;;;;;;;;;3.20;3.20;;;;;16.11;100.00;101351.34;6196127;23;44865;-87
2022/05/12 00:48:45;;;;;;;;;;;;;;;;;;;;;
2022/05/12 00:51:24;;;;;;;;;6.00;4.00;;;;;16.08;100.00;101362.28;6072152;23;74565;-86
2022/05/12 00:54:40;;;;;;;;;;;;;;;;;;;;;
2022/05/12 00:57:22;;;;;;;;;6.40;4.80;;;;;15.97;100.00;101371.19;6073109;23;67411;-87
2022/05/12 00:59:59;;;;;;;;;11.75;6.00;;;;;15.93;100.00;101365.22;6026646;23;44867;-87
2022/05/12 01:02:51;;;;;;;;;7.60;4.60;;;;;15.94;100.00;101372.28;6056107;23;45453;-87
2022/05/12 01:05:22;;;;;;;;;3.20;2.60;;;;;15.89;100.00;101377.16;6079616;23;44895;-87
2022/05/12 01:07:58;;;;;;;;;4.60;4.20;;;;;15.88;100.00;101374.59;6079663;23;45267;-87
2022/05/12 01:10:32;;;;;;;;;7.00;4.25;;;;;15.91;100.00;101377.06;6047307;23;44772;-87
2022/05/12 01:13:20;;;;;;;;;4.80;4.00;;;;;15.90;100.00;101383.38;6056706;23;47615;-87
2022/05/12 01:16:12;;;;;;;;;7.40;5.60;;;;;15.85;100.00;101380.19;6099351;23;44703;-87
2022/05/12 01:18:42;;;;;;;;;9.80;4.60;;;;;15.88;100.00;101380.81;6066848;23;44758;-87
2022/05/12 01:21:40;;;;;;;;;5.50;3.50;;;;;15.85;100.00;101374.84;6068338;23;45015;-88
2022/05/12 01:24:06;;;;;;;;;7.00;5.00;;;;;15.80;100.00;101379.72;6043447;23;45561;-86
2022/05/12 01:26:33;;;;;;;;;2.60;2.60;;;;;15.77;100.00;101386.19;6042330;23;45229;-86
2022/05/12 01:29:00;;;;;;;;;3.20;2.80;;;;;15.75;100.00;101395.28;6120019;23;44869;-88
2022/05/12 01:31:28;;;;;;;;;3.00;3.00;;;;;15.74;100.00;101383.72;6130968;23;45530;-87
2022/05/12 01:33:54;;;;;;;;;9.20;4.00;;;;;15.73;100.00;101392.75;6158311;23;46998;-88
2022/05/12 01:36:40;;;;;;;;;8.00;6.00;;;;;15.74;100.00;101394.44;6155664;23;45702;-87
2022/05/12 01:39:08;;;;;;;;;5.00;3.00;;;;;15.78;100.00;101395.06;6153081;23;44815;-86
2022/05/12 01:41:34;;;;;;;;;4.50;4.50;;;;;15.77;100.00;101393.34;6153292;23;45376;-87
2022/05/12 01:44:04;;;;;;;;;4.75;3.25;;;;;15.77;100.00;101391.53;6154767;23;45226;-87
2022/05/12 01:46:31;;;;;;;;;5.20;3.60;;;;;15.69;100.00;101393.94;6154127;23;45241;-88
2022/05/12 01:48:57;;;;;;;;;9.00;7.00;;;;;15.66;100.00;101394.19;6159233;23;45401;-88
2022/05/12 01:51:24;;;;;;;;;6.50;4.75;;;;;15.64;100.00;101402.34;6158743;23;44777;-87
2022/05/12 01:54:15;;;;;;;;;7.40;6.00;;;;;15.52;100.00;101407.75;6131880;23;45206;-86
2022/05/12 01:57:28;;;;;;;;;;;;;;;;;;;;;
2022/05/12 02:03:14;;;;;;;;;10.50;4.25;;;;;15.36;100.00;101430.34;6115620;23;45214;-86
2022/05/12 02:05:40;;;;;;;;;3.25;2.25;;;;;15.28;100.00;101434.56;6132422;23;45276;-87
2022/05/12 02:08:19;;;;;;;;;6.00;4.20;;;;;15.18;100.00;101434.41;6108474;23;45162;-87
2022/05/12 02:11:06;;;;;;;;;4.00;4.00;;;;;15.10;100.00;101435.00;6134907;23;45226;-88
2022/05/12 02:13:50;;;;;;;;;;;;;;;;;;;;;
2022/05/12 02:16:26;;;;;;;;;9.25;5.75;;;;;15.08;100.00;101442.28;6126014;23;74841;-87
2022/05/12 02:22:14;;;;;;;;;5.00;5.00;;;;;15.00;100.00;101449.19;6129872;23;45256;-88
2022/05/12 02:25:19;;;;;;;;;4.75;3.50;;;;;14.97;100.00;101457.44;6135873;23;44856;-87
2022/05/12 02:34:34;;;;;;;;;;;;;;;;;;;;;
2022/05/12 02:37:47;;;;;;;;;6.00;4.75;;;;;14.82;100.00;101480.81;6219285;22;69268;-88
2022/05/12 02:50:53;;;;;;;;;7.60;2.00;;;;;14.75;100.00;101471.53;6117551;23;44743;-86
2022/05/12 02:57:46;;;;;;;;;;;;;;;;;;;;;
2022/05/12 03:00:41;;;;;;;;;4.00;1.00;;;;;14.68;100.00;101483.63;5942493;23;67304;-87
2022/05/12 03:03:17;;;;;;;;;3.20;2.00;;;;;14.64;100.00;101489.19;5934685;24;44892;-87
2022/05/12 03:05:43;;;;;;;;;1.00;1.00;;;;;14.63;100.00;101484.81;5953226;23;45403;-88
2022/05/12 03:08:13;;;;;;;;;1.80;1.00;;;;;14.63;100.00;101492.84;5932389;24;45246;-87
2022/05/12 03:10:44;;;;;;;;;2.60;2.40;;;;;14.63;100.00;101492.00;5933643;24;45248;-88
2022/05/12 03:13:15;;;;;;;;;4.00;2.00;;;;;14.65;100.00;101487.41;5933720;24;44837;-87
2022/05/12 03:15:42;;;;;;;;;2.00;2.00;;;;;14.63;100.00;101498.19;5959478;23;44977;-87
2022/05/12 03:18:08;;;;;;;;;2.60;2.00;;;;;14.63;100.00;101492.00;6084257;23;45485;-87
2022/05/12 03:20:33;;;;;;;;;3.25;3.25;;;;;14.62;100.00;101492.97;6042039;23;45408;-87
2022/05/12 03:23:05;;;;;;;;;5.25;2.00;;;;;14.60;100.00;101502.91;6066285;23;44891;-86
2022/05/12 03:25:31;;;;;;;;;2.50;2.00;;;;;14.64;100.00;101499.03;6066927;23;44928;-87
2022/05/12 03:27:59;;;;;;;;;7.00;4.00;;;;;14.60;100.00;101494.88;6115676;23;44787;-87
2022/05/12 03:30:27;;;;;;;;;4.20;3.20;;;;;14.54;100.00;101506.88;6130756;23;45335;-86
2022/05/12 03:32:55;;;;;;;;;3.00;3.00;;;;;14.54;100.00;101496.16;6166723;22;45251;-87
2022/05/12 03:35:21;;;;;;;;;2.00;2.00;;;;;14.62;100.00;101507.19;6258548;22;46512;-86
2022/05/12 03:37:48;;;;;;;;;6.60;3.60;;;;;14.64;100.00;101505.25;6231525;22;44789;-86
2022/05/12 03:40:19;;;;;;;;;3.00;3.00;;;;;14.61;100.00;101507.31;6263223;22;44717;-87
2022/05/12 03:43:02;;;;;;;;;2.50;2.00;;;;;14.56;100.00;101509.44;6231970;22;45280;-87
2022/05/12 03:46:26;;;;;;;;;;;;;;;;;;;;;
2022/05/12 03:48:53;;;;;;;;;2.80;1.60;;;;;14.50;100.00;101500.03;6259940;22;72078;-86
2022/05/12 03:51:21;;;;;;;;;4.00;3.40;;;;;14.45;100.00;101507.47;6231971;22;44745;-86
2022/05/12 03:53:47;;;;;;;;;2.80;2.40;;;;;14.43;100.00;101508.56;6222401;22;45230;-87
2022/05/12 03:56:30;;;;;;;;;2.25;2.25;;;;;14.35;100.00;101498.41;6251961;22;44838;-88
2022/05/12 03:59:07;;;;;;;;;3.00;2.60;;;;;14.27;100.00;101500.78;6248956;22;44648;-87
2022/05/12 04:01:37;;;;;;;;;1.20;1.20;;;;;14.23;100.00;101505.47;6255782;22;44735;-88
2022/05/12 04:04:03;;;;;;;;;12.40;2.00;;;;;14.16;100.00;101509.53;6249014;22;44733;-87
2022/05/12 04:07:14;;;;;;;;;4.60;2.80;;;;;14.17;100.00;101508.59;6261487;22;45126;-88
2022/05/12 04:10:02;;;;;;;;;2.00;2.00;;;;;14.10;100.00;101512.63;6183808;22;45381;-88
2022/05/12 04:13:08;;;;;;;;;3.20;2.00;;;;;14.03;100.00;101511.38;6172337;22;44748;-87
2022/05/12 04:15:39;;;;;;;;;3.80;2.00;;;;;14.05;100.00;101507.59;6252807;22;44821;-87
2022/05/12 04:18:09;;;;;;;;;0.40;0.20;;;;;14.08;100.00;101523.44;6236507;22;46622;-86
2022/05/12 04:20:39;;;;;;;;;3.00;3.00;;;;;14.09;100.00;101517.13;6238194;22;44685;-86
2022/05/12 04:23:09;;;;;;;;;8.20;2.60;;;;;14.13;100.00;101523.97;6257910;22;44662;-87
2022/05/12 04:25:43;;;;;;;;;4.00;2.25;;;;;14.15;100.00;101532.72;6256060;22;44790;-87
2022/05/12 04:28:11;;;;;;;;;5.00;2.00;;;;;14.13;100.00;101526.66;6228844;22;45284;-86
2022/05/12 04:30:38;;;;;;;;;4.20;3.40;;;;;14.11;100.00;101525.88;6232454;22;44721;-86
2022/05/12 04:36:36;;;;;;;;;;;;;;;;;;;;;
2022/05/12 04:39:26;;;;;;;;;4.50;3.00;;;;;14.11;100.00;101533.03;6250867;22;74110;-87
2022/05/12 04:42:13;;;;;;;;;7.00;2.00;;;;;14.01;100.00;101538.16;6230298;22;44718;-86
2022/05/12 04:45:12;;;;;;;;;2.80;2.80;;;;;14.04;100.00;101540.63;6254497;22;44705;-87
2022/05/12 04:48:36;;;;;;;;;;;;;;;;;;;;;
2022/05/12 04:51:19;;;;;;;;;2.75;2.75;;;;;14.04;100.00;101542.47;6010907;23;74545;-88
2022/05/12 04:54:09;;;;;;;;;3.00;3.00;;;;;14.01;100.00;101548.00;6045602;23;44736;-88
2022/05/12 04:57:06;;;;;;;;;5.80;5.80;;;;;14.03;100.00;101551.44;6015661;23;45395;-87
2022/05/12 05:00:04;;;;;;;;;4.00;2.00;;;;;14.13;100.00;101552.50;6022123;23;44927;-88
2022/05/12 05:03:09;;;;;;;;;;;;;;;;;;;;;
2022/05/12 05:05:42;;;;;;;;;7.40;2.20;;;;;14.44;100.00;101548.56;6010347;23;72208;-87
2022/05/12 05:08:24;;;;;;;;;5.40;3.00;;;;;14.45;100.00;101549.41;6022103;23;45450;-88
2022/05/12 05:10:53;;;;;;;;;2.60;2.20;;;;;14.44;100.00;101558.41;6012794;23;45270;-88
2022/05/12 05:13:22;;;;;;;;;4.00;3.60;;;;;14.47;100.00;101552.84;6014014;23;45501;-87
2022/05/12 05:20:04;;;;;;;;;3.40;3.40;;;;;14.77;100.00;101557.88;5876495;24;44858;-87
2022/05/12 05:22:30;;;;;;;;;4.50;2.00;;;;;14.77;100.00;101566.75;5883490;24;45046;-88
2022/05/12 05:25:01;;;;;;;;;9.00;3.00;;;;;14.91;100.00;101560.41;5934771;23;44963;-90
2022/05/12 05:27:27;;;;;;;;;5.20;3.00;;;;;14.98;100.00;101577.72;6012711;23;44663;-88
2022/05/12 05:29:52;;;;;;;;;5.25;3.25;;;;;14.98;100.00;101572.38;6025863;23;44790;-88
2022/05/12 05:33:22;;;;;;;;;;;;;;;;;;;;;
2022/05/12 05:36:10;;;;;;;;;3.00;3.00;;;;;15.05;100.00;101588.84;6014507;23;74573;-89
2022/05/12 05:39:00;;;;;;;;;2.60;2.60;;;;;15.24;100.00;101597.25;5970250;23;44659;-88
2022/05/12 05:42:18;;;;;;;;;;;;;;;;;;;;;
2022/05/12 05:45:40;;;;;;;;;5.00;4.80;;;;;15.41;100.00;101604.03;6020982;23;70460;-89
2022/05/12 05:48:50;;;;;;;;;;;;;;;;;;;;;
2022/05/12 05:54:06;;;;;;;;;4.60;2.60;;;;;15.83;100.00;101608.06;6056682;23;45454;-88
2022/05/12 05:56:56;;;;;;;;;5.60;3.00;;;;;16.01;100.00;101613.88;6152035;22;44778;-88
2022/05/12 05:59:23;;;;;;;;;5.20;3.00;;;;;16.33;100.00;101622.13;6208084;22;45565;-88
2022/05/12 06:02:28;;;;;;;;;4.40;3.20;;;;;16.53;100.00;101627.78;6182161;22;44734;-87
2022/05/12 06:05:21;;;;;;;;;10.60;6.60;;;;;16.62;100.00;101632.44;6206290;22;44709;-87
2022/05/12 06:08:10;;;;;;;;;5.40;4.00;;;;;16.90;100.00;101639.19;6207101;22;44781;-87
2022/05/12 06:10:42;;;;;;;;;8.00;3.20;;;;;16.83;100.00;101656.78;6202648;22;45253;-89
2022/05/12 06:13:20;;;;;;;;;4.40;2.60;;;;;16.76;100.00;101651.03;6226654;22;44702;-89
2022/05/12 06:15:50;;;;;;;;;4.00;3.00;;;;;16.92;100.00;101654.22;6198369;22;44888;-88
2022/05/12 06:18:21;;;;;;;;;5.00;3.00;;;;;17.12;100.00;101655.31;6220847;22;44885;-87
2022/05/12 06:20:50;;;;;;;;;3.00;1.00;;;;;17.33;100.00;101651.88;6196477;22;45509;-88
2022/05/12 06:23:18;;;;;;;;;4.00;2.20;;;;;17.34;100.00;101654.44;6198137;22;45235;-89
2022/05/12 06:25:52;;;;;;;;;5.80;2.00;;;;;17.14;100.00;101655.19;6223850;22;44750;-88
2022/05/12 06:28:30;;;;;;;;;2.40;2.40;;;;;16.98;100.00;101652.03;6247898;22;45406;-88
2022/05/12 06:31:25;;;;;;;;;;;;;;;;;;;;;
2022/05/12 06:34:27;;;;;;;;;4.40;4.00;;;;;16.94;100.00;101659.47;6232673;22;72169;-88
2022/05/12 06:37:01;;;;;;;;;5.20;4.60;;;;;16.84;100.00;101666.53;6128873;23;44842;-88
2022/05/12 06:39:48;;;;;;;;;8.20;5.00;;;;;16.55;100.00;101666.09;6105019;23;44979;-88
2022/05/12 06:42:14;;;;;;;;;3.00;3.00;;;;;16.46;100.00;101662.28;6113199;23;46783;-87
2022/05/12 06:44:42;;;;;;;;;3.80;3.60;;;;;16.38;100.00;101664.69;6139094;23;44763;-89
2022/05/12 06:47:15;;;;;;;;;4.60;3.20;;;;;16.15;100.00;101677.19;6136507;23;44758;-88
2022/05/12 06:50:16;;;;;;;;;5.40;3.00;;;;;16.33;100.00;101673.06;6126976;23;44830;-88
2022/05/12 06:52:49;;;;;;;;;5.80;3.40;;;;;16.49;100.00;101675.47;6123029;23;46925;-89
2022/05/12 06:55:31;;;;;;;;;4.80;2.60;;;;;16.79;100.00;101677.63;6152228;23;45158;-87
2022/05/12 06:57:59;;;;;;;;;4.00;4.00;;;;;16.99;100.00;101673.38;6104430;23;44708;-88
2022/05/12 07:00:27;;;;;;;;;2.20;2.20;;;;;17.27;100.00;101669.34;6130450;23;44639;-88
2022/05/12 07:03:31;;;;;;;;;6.00;3.00;;;;;17.42;100.00;101665.41;6153748;23;45175;-89
2022/05/12 07:05:58;;;;;;;;;3.80;3.60;;;;;17.29;100.00;101667.38;6150083;23;44766;-89
2022/05/12 07:09:03;;;;;;;;;4.00;4.00;;;;;17.43;100.00;101675.19;6126095;23;44771;-88
2022/05/12 07:11:31;;;;;;;;;1.40;1.40;;;;;17.49;100.00;101671.13;6119608;23;45567;-89
2022/05/12 07:14:00;;;;;;;;;6.80;2.60;;;;;17.71;100.00;101670.25;6205945;22;45014;-88
2022/05/12 07:16:44;;;;;;;;;;;;;;;;;;;;;
2022/05/12 07:19:25;;;;;;;;;5.20;4.60;;;;;17.92;100.00;101675.72;6259502;22;68109;-88
2022/05/12 07:27:37;;;;;;;;;7.00;4.00;;;;;18.10;100.00;101676.03;6268973;22;44547;-87
2022/05/12 07:30:12;;;;;;;;;4.60;3.60;;;;;18.22;100.00;101667.75;6220801;22;44755;-87
2022/05/12 07:32:38;;;;;;;;;4.20;3.20;;;;;18.47;100.00;101668.41;6267752;22;44861;-87
2022/05/12 07:35:17;;;;;;;;;9.00;3.00;;;;;18.73;100.00;101667.03;6242653;22;46723;-86
2022/05/12 07:41:16;;;;;;;;;2.40;2.40;;;;;18.59;100.00;101661.09;6245689;22;45161;-88
2022/05/12 07:43:58;;;;;;;;;6.60;3.00;;;;;18.23;100.00;101661.41;6236546;22;44827;-87
2022/05/12 07:46:31;;;;;;;;;2.60;2.00;;;;;18.24;100.00;101662.28;6243556;22;46545;-87
2022/05/12 07:49:05;;;;;;;;;3.80;2.80;;;;;18.45;100.00;101663.13;6209391;22;44758;-88
2022/05/12 07:51:50;;;;;;;;;5.40;3.20;;;;;18.39;100.00;101660.97;6266901;22;44873;-86
2022/05/12 07:54:33;;;;;;;;;6.00;2.00;;;;;18.33;100.00;101671.41;6110799;23;44883;-88
2022/05/12 07:57:23;;;;;;;;;1.20;1.00;;;;;18.22;100.00;101665.06;6157141;23;45210;-89
2022/05/12 07:59:50;;;;;;;;;2.00;2.00;;;;;18.32;100.00;101672.34;6139234;23;44767;-87
2022/05/12 08:02:33;;;;;;;;;4.60;3.40;;;;;18.39;100.00;101676.25;6141484;23;44761;-89
2022/05/12 08:05:16;;;;;;;;;3.20;1.80;;;;;18.25;100.00;101666.66;6134952;23;44787;-89
2022/05/12 08:07:47;;;;;;;;;5.80;3.00;;;;;18.00;100.00;101678.63;6156539;23;45715;-88
2022/05/12 08:10:32;;;;;;;;;2.80;2.80;;;;;17.97;100.00;101678.88;6130512;23;45138;-88
2022/05/12 08:13:16;;;;;;;;;5.60;3.00;;;;;18.14;100.00;101681.00;6075426;23;44641;-89
2022/05/12 08:16:14;;;;;;;;;1.80;1.80;;;;;18.26;100.00;101679.13;6104026;23;45413;-88
2022/05/12 08:28:19;;;;;;;;;3.60;2.20;;;;;18.38;100.00;101688.84;6017570;23;45232;-88
2022/05/12 08:31:30;;;;;;;;;2.00;2.00;;;;;18.61;100.00;101694.09;6023662;23;45191;-88
2022/05/12 08:34:00;;;;;;;;;1.60;0.00;;;;;18.61;100.00;101697.63;6006108;23;45233;-88
2022/05/12 08:37:05;;;;;;;;;;;;;;;;;;;;;
2022/05/12 08:40:07;;;;;;;;;13.80;6.40;;;;;18.58;100.00;101689.84;6078450;23;69303;-89
2022/05/12 08:42:49;;;;;;;;;1.00;1.00;;;;;18.19;100.00;101692.25;6076954;23;45559;-87
2022/05/12 08:45:18;;;;;;;;;2.60;2.00;;;;;18.49;100.00;101693.31;6086725;23;44755;-86
2022/05/12 08:48:26;;;;;;;;;2.00;2.00;;;;;18.70;100.00;101693.34;6084596;23;44791;-87
2022/05/12 08:50:56;;;;;;;;;4.20;3.00;;;;;18.60;100.00;101687.88;6079597;23;44911;-88
2022/05/12 08:53:29;;;;;;;;;8.20;3.40;;;;;18.88;100.00;101686.38;6056620;23;46562;-89
2022/05/12 08:56:04;;;;;;;;;2.80;1.20;;;;;19.26;100.00;101687.53;6076759;23;44706;-90
2022/05/12 08:58:37;;;;;;;;;0.00;0.00;;;;;19.35;100.00;101685.88;6053899;23;45463;-91
2022/05/12 09:01:36;;;;;;;;;4.00;0.00;;;;;19.70;100.00;101683.59;6040196;23;44877;-89
2022/05/12 09:04:12;;;;;;;;;3.00;1.20;;;;;19.98;99.80;101690.03;6075895;23;45294;-88
2022/05/12 09:07:09;;;;;;;;;2.00;2.00;;;;;20.02;99.63;101680.66;6073203;23;44777;-89
2022/05/12 09:09:43;;;;;;;;;2.00;2.00;;;;;19.72;99.03;101678.06;6075176;23;44804;-90
2022/05/12 09:16:09;;;;;;;;;4.20;1.20;;;;;19.48;100.00;101667.59;6066627;23;45153;-90
2022/05/12 09:18:40;;;;;;;;;3.20;3.20;;;;;19.35;100.00;101678.66;6137053;23;44625;-86
2022/05/12 09:21:10;;;;;;;;;2.00;2.00;;;;;19.32;100.00;101681.59;6155897;23;44755;-90
2022/05/12 09:23:47;;;;;;;;;3.40;1.80;;;;;19.31;100.00;101679.06;6130444;23;44866;-89
2022/05/12 09:26:37;;;;;;;;;2.40;1.20;;;;;19.59;100.00;101681.00;6137842;23;45442;-87
2022/05/12 09:29:23;;;;;;;;;3.20;2.00;;;;;19.14;100.00;101686.78;6164048;23;44676;-89
2022/05/12 09:32:11;;;;;;;;;1.40;1.40;;;;;18.91;100.00;101690.66;6161785;23;44695;-89
2022/05/12 09:34:46;;;;;;;;;2.00;2.00;;;;;19.03;100.00;101683.34;6114222;23;44810;-87
2022/05/12 09:41:31;;;;;;;;;;;;;;;;;;;;;
2022/05/12 09:44:43;;;;;;;;;;;;;;;;;;;;;
2022/05/12 09:47:41;;;;;;;;;;;;;;;;;;;;;
2022/05/12 09:50:28;;;;;;;;;3.20;2.20;;;;;20.33;98.24;101675.13;6196073;23;74552;-89
2022/05/12 09:56:32;;;;;;;;;1.60;1.00;;;;;20.85;95.97;101672.09;6043069;23;45397;-88
2022/05/12 09:59:07;;;;;;;;;1.00;1.00;;;;;20.86;97.41;101671.06;6044217;23;44808;-88
2022/05/12 10:01:50;;;;;;;;;3.20;2.40;;;;;21.14;95.46;101670.13;6016684;23;45134;-90
2022/05/12 10:10:23;;;;;;;;;1.20;1.20;;;;;20.49;94.50;101658.34;6019328;23;45335;-89
2022/05/12 10:13:08;;;;;;;;;2.60;2.00;;;;;19.92;98.41;101662.75;6036085;23;46592;-88
2022/05/12 10:15:39;;;;;;;;;3.40;2.00;;;;;19.88;98.02;101658.66;6060576;23;44828;-89
2022/05/12 10:18:58;;;;;;;;;1.40;1.40;;;;;20.20;96.78;101661.06;6036951;23;44870;-86
2022/05/12 10:21:30;;;;;;;;;4.80;2.00;;;;;20.93;95.11;101654.13;6050508;23;45311;-89
2022/05/12 10:24:37;;;;;;;;;2.20;1.60;;;;;21.62;92.54;101650.13;6030218;23;45076;-89
2022/05/12 10:27:35;;;;;;;;;2.00;1.00;;;;;22.06;87.95;101651.06;6049518;23;44670;-89
2022/05/12 10:30:41;;;;;;;;;1.00;1.00;;;;;22.15;85.21;101656.59;6040369;23;45528;-90
2022/05/12 10:33:34;;;;;;;;;1.00;1.00;;;;;22.54;84.72;101646.25;6158531;22;44861;-89
2022/05/12 10:36:27;;;;;;;;;3.00;2.00;;;;;22.90;86.14;101654.28;6203436;22;45071;-89
2022/05/12 10:39:20;;;;;;;;;3.60;1.80;;;;;22.74;76.46;101655.84;6202040;22;44625;-88
2022/05/12 10:48:56;;;;;;;;;1.40;1.40;;;;;23.19;79.36;101648.50;6082750;23;45002;-90
2022/05/12 10:51:56;;;;;;;;;3.60;2.00;;;;;23.08;78.97;101650.47;6053605;23;45386;-89
2022/05/12 10:55:42;;;;;;;;;1.40;1.40;;;;;23.32;78.27;101648.91;6012845;23;44857;-88
2022/05/12 11:12:44;;;;;;;;;;;;;;;;;;;;;
2022/05/12 11:26:31;;;;;;;;;;;;;;;;;;;;;
2022/05/12 11:57:13;;;;;;;;;2.00;2.00;;;;;21.58;86.27;101637.91;6024925;23;45055;-87
2022/05/12 12:00:03;;;;;;;;;2.80;2.80;;;;;21.74;85.71;101634.50;6021229;23;44761;-88
2022/05/12 12:02:53;;;;;;;;;5.20;3.00;;;;;22.24;80.93;101636.69;5959966;23;44709;-88
2022/05/12 12:05:37;;;;;;;;;6.00;4.20;;;;;22.67;77.68;101638.53;5924349;23;44903;-88
2022/05/12 12:11:25;;;;;;;;;1.80;1.80;;;;;22.11;81.57;101634.41;5962145;23;44794;-87
2022/05/12 12:14:04;;;;;;;;;5.00;3.40;;;;;22.02;83.81;101621.75;5964451;23;44886;-89
2022/05/12 12:17:10;;;;;;;;;3.60;2.40;;;;;22.04;82.85;101619.75;6001019;23;44779;-88
2022/05/12 12:20:05;;;;;;;;;1.00;1.00;;;;;22.30;82.56;101620.69;6014910;23;45422;-89
2022/05/12 12:26:32;;;;;;;;;1.00;1.00;;;;;21.58;82.91;101631.66;5994252;23;45215;-88
2022/05/12 12:29:15;;;;;;;;;0.40;0.00;;;;;21.17;87.21;101628.41;5959408;23;44879;-89
2022/05/12 12:36:27;;;;;;;;;;;;;;;;;;;;;
2022/05/12 12:38:58;;;;;;;;;3.20;2.00;;;;;21.91;86.80;101603.91;5971304;23;45505;-88
2022/05/12 12:41:41;;;;;;;;;2.20;2.00;;;;;21.81;85.79;101604.00;6027677;23;44809;-89
2022/05/12 12:44:24;;;;;;;;;2.00;2.00;;;;;21.86;87.68;101605.41;6025549;23;45060;-89
2022/05/12 12:47:01;;;;;;;;;0.20;0.20;;;;;21.59;88.19;101603.59;6014464;23;44880;-88
2022/05/12 12:50:37;;;;;;;;;;;;;;;;;;;;;
2022/05/12 12:57:42;;;;;;;;;;;;;;;;;;;;;
2022/05/12 13:00:49;;;;;;;;;2.40;2.40;;;;;21.69;88.72;101596.25;5926866;24;44852;-89
2022/05/12 13:03:57;;;;;;;;;1.20;1.00;;;;;;;;5929701;24;44975;-89
2022/05/12 13:18:33;;;;;;;;;;;;;;;;;;;;;
2022/05/12 13:27:55;;;;;;;;;;;;;;;;;;;;;
2022/05/12 13:31:28;;;;;;;;;;;;;;;;;;;;;
2022/05/12 13:37:30;;;;;;;;;1.40;1.00;;;;;24.44;74.89;101571.53;6044404;23;44983;-88
2022/05/12 13:41:16;;;;;;;;;2.80;1.80;;;;;24.26;69.59;101580.69;6044981;23;45282;-88
2022/05/12 13:58:51;;;;;;;;;1.00;1.00;;;;;23.65;65.61;101565.78;5818525;24;44894;-89
2022/05/12 14:01:39;;;;;;;;;0.80;0.80;;;;;23.17;71.01;101564.63;5824681;24;44790;-89
2022/05/12 14:04:24;;;;;;;;;1.00;1.00;;;;;23.69;69.02;101560.84;5871679;24;45379;-88
2022/05/12 14:20:46;;;;;;;;;2.00;1.20;;;;;24.16;68.26;101568.31;5997631;23;44600;-90
2022/05/12 14:23:15;;;;;;;;;2.80;2.00;;;;;23.52;69.80;101568.09;5956367;23;44922;-88
2022/05/12 14:26:34;;;;;;;;;;;;;;;;;;;;;
2022/05/12 14:29:37;;;;;;;;;0.60;0.60;;;;;23.34;70.65;101563.63;6206008;23;74540;-89
2022/05/12 14:33:14;;;;;;;;;;;;;;;;;;;;;
2022/05/12 14:36:11;;;;;;;;;5.40;1.00;;;;;24.03;70.17;101555.25;6092735;23;44715;-89
2022/05/12 14:42:32;;;;;;;;;1.40;1.00;;;;;24.66;69.23;101538.19;6142416;23;44840;-91
2022/05/12 14:46:22;;;;;;;;;;;;;;;;;;;;;
2022/05/12 14:48:58;;;;;;;;;2.40;2.40;;;;;23.55;68.63;101532.50;6050705;23;44796;-90
2022/05/12 14:52:01;;;;;;;;;1.20;1.20;;;;;23.76;68.54;101527.44;6049179;23;45415;-92
2022/05/12 14:54:59;;;;;;;;;0.80;0.80;;;;;24.11;67.46;101528.09;6050735;23;46810;-91
2022/05/12 14:58:15;;;;;;;;;;;;;;;;;;;;;
2022/05/12 15:00:51;;;;;;;;;0.40;0.40;;;;;24.84;62.22;101518.91;5992507;23;68128;-90
2022/05/12 15:03:36;;;;;;;;;1.20;1.20;;;;;24.73;64.02;101512.00;5997251;23;44805;-91
2022/05/12 15:10:15;;;;;;;;;;;;;;;;;;;;;
2022/05/12 15:13:31;;;;;;;;;3.00;2.80;;;;;23.17;70.14;101542.94;5940424;24;44844;-92
2022/05/12 15:16:46;;;;;;;;;2.40;1.80;;;;;23.32;72.88;101533.13;5893009;24;44797;-90
2022/05/12 15:33:59;;;;;;;;;2.60;1.80;;;;;22.75;72.29;101530.22;5881713;24;44912;-90
2022/05/12 15:37:00;;;;;;;;;3.80;2.00;;;;;22.51;71.66;101524.69;5828177;24;44838;-90
2022/05/12 15:40:22;;;;;;;;;1.00;1.00;;;;;22.48;72.77;101536.69;5824068;24;45320;-90
2022/05/12 15:43:32;;;;;;;;;3.60;1.40;;;;;21.97;78.63;101530.22;5831514;24;44886;-89
2022/05/12 15:53:03;;;;;;;;;1.80;1.60;;;;;21.94;79.17;101526.97;5837808;24;44769;-90
2022/05/12 15:55:50;;;;;;;;;1.00;1.00;;;;;21.90;79.36;101525.59;5834329;24;44946;-92
2022/05/12 15:58:40;;;;;;;;;1.00;1.00;;;;;21.93;79.18;101518.00;5800276;24;44944;-92
2022/05/12 16:01:44;;;;;;;;;5.00;2.00;;;;;22.22;79.68;101516.91;5811228;24;44624;-92
2022/05/12 16:04:29;;;;;;;;;1.80;1.00;;;;;22.47;79.76;101513.31;5896388;24;44734;-93
2022/05/12 16:11:04;;;;;;;;;1.00;1.00;;;;;21.73;81.29;101521.91;5959909;23;45019;-91
2022/05/12 16:13:33;;;;;;;;;2.00;2.00;;;;;21.81;81.99;101527.41;5962401;23;44747;-91
2022/05/12 16:16:25;;;;;;;;;;;;;;;;;;;;;
2022/05/12 16:19:09;;;;;;;;;2.60;2.60;;;;;21.33;83.98;101522.41;5908006;24;69207;-91
2022/05/12 16:21:39;;;;;;;;;3.80;1.20;;;;;21.40;82.76;101516.22;5897720;24;45031;-91
2022/05/12 16:24:08;;;;;;;;;1.20;1.00;;;;;21.13;83.93;101514.41;5928218;24;44766;-90
2022/05/12 16:26:48;;;;;;;;;1.40;1.00;;;;;21.17;84.35;101518.47;5929179;24;44950;-92
2022/05/12 16:29:54;;;;;;;;;1.60;1.60;;;;;21.47;83.71;101525.41;5907173;23;44738;-93
2022/05/12 16:33:01;;;;;;;;;;;;;;;;;;;;;
2022/05/12 16:36:16;;;;;;;;;;;;;;;;;;;;;
2022/05/12 16:39:14;;;;;;;;;;;;;;;;;;;;;
2022/05/12 16:45:12;;;;;;;;;4.00;2.00;;;;;21.25;83.42;101521.25;5853965;24;44878;-92
2022/05/12 16:48:27;;;;;;;;;1.80;1.80;;;;;21.25;82.89;101525.81;5909314;24;44742;-90
2022/05/12 16:51:02;;;;;;;;;1.00;1.00;;;;;21.30;81.98;101532.50;5911054;24;44803;-90
2022/05/12 16:58:31;;;;;;;;;;;;;;;;;;;;;
2022/05/12 17:04:23;;;;;;;;;2.00;2.00;;;;;21.35;83.03;101539.31;5782382;24;44816;-91
2022/05/12 17:07:35;;;;;;;;;1.00;1.00;;;;;21.11;83.72;101537.16;5776949;24;44958;-89
2022/05/12 17:10:02;;;;;;;;;3.20;1.00;;;;;21.21;83.31;101538.78;5799367;24;45213;-87
2022/05/12 17:12:30;;;;;;;;;2.40;1.40;;;;;21.23;84.13;101535.94;5797298;24;44920;-89
2022/05/12 17:14:57;;;;;;;;;1.60;1.60;;;;;21.02;85.31;101539.75;5776553;24;44771;-88
2022/05/12 17:17:27;;;;;;;;;3.00;2.00;;;;;20.94;87.05;101536.97;5777363;24;44853;-90
2022/05/12 17:19:59;;;;;;;;;0.40;0.40;;;;;21.09;86.32;101526.50;5781158;24;45296;-89
2022/05/12 17:22:49;;;;;;;;;1.40;1.40;;;;;21.11;85.38;101532.59;5778592;24;44643;-91
2022/05/12 17:25:21;;;;;;;;;2.00;2.00;;;;;21.11;85.72;101527.19;5786065;24;44947;-88
2022/05/12 17:27:50;;;;;;;;;2.00;2.00;;;;;20.83;85.07;101523.66;5803648;24;44862;-90
2022/05/12 17:30:40;;;;;;;;;1.20;1.20;;;;;20.76;85.15;101531.50;5832315;24;45626;-88
2022/05/12 17:33:06;;;;;;;;;3.00;1.60;;;;;20.60;86.03;101514.25;5892750;24;44617;-89
2022/05/12 17:35:32;;;;;;;;;3.80;2.00;;;;;20.46;87.14;101529.06;6064999;23;44690;-88
2022/05/12 17:38:09;;;;;;;;;2.00;2.00;;;;;20.64;87.28;101519.19;6090459;23;44804;-88